Time;durP1;ratioP1;P1;durP2;ratioP2;P2;SDS_P1;SDS_P2;PMS_P1;PMS_P2;Temp;Humidity;BMP_temperature;BMP_pressure;BME280_temperature;BME280_humidity;BME280_pressure;Samples;Min_cycle;Max_cycle;Signal;HPM_P1;HPM_P2
2022/07/29 00:01:08;;;;;;;6.75;1.77;;;19.60;99.90;;;;;;4216938;28;20177;-89
2022/07/29 00:03:09;;;;;;;7.63;1.75;;;19.50;99.90;;;;;;4200059;28;20190;-89
2022/07/29 00:05:13;;;;;;;4.30;1.35;;;19.60;99.90;;;;;;4199948;28;20214;-90
2022/07/29 00:07:13;;;;;;;7.80;1.92;;;19.80;99.90;;;;;;4200111;28;20167;-89
2022/07/29 00:09:14;;;;;;;2.95;1.35;;;19.90;99.90;;;;;;4216484;28;20263;-89
2022/07/29 00:11:15;;;;;;;5.85;1.58;;;19.70;99.90;;;;;;4216851;28;20665;-90
2022/07/29 00:13:15;;;;;;;9.15;1.52;;;19.80;99.90;;;;;;4200171;28;20171;-90
2022/07/29 00:15:16;;;;;;;9.50;1.70;;;19.70;99.90;;;;;;4200036;28;20175;-89
2022/07/29 00:17:17;;;;;;;6.10;1.98;;;19.60;99.90;;;;;;4199899;28;20248;-89
2022/07/29 00:19:18;;;;;;;7.82;1.80;;;19.40;99.90;;;;;;4199764;28;20179;-91
2022/07/29 00:21:18;;;;;;;4.03;1.30;;;19.20;99.90;;;;;;4216583;28;20227;-90
2022/07/29 00:23:19;;;;;;;5.03;1.40;;;19.00;99.90;;;;;;4216683;28;20586;-91
2022/07/29 00:25:20;;;;;;;7.85;1.38;;;19.10;99.90;;;;;;4199953;28;20202;-90
2022/07/29 00:27:21;;;;;;;5.07;1.60;;;19.00;99.90;;;;;;4200037;28;20179;-90
2022/07/29 00:29:22;;;;;;;8.75;1.83;;;19.20;99.90;;;;;;4199904;28;20654;-89
2022/07/29 00:31:23;;;;;;;4.50;1.40;;;19.30;99.90;;;;;;4216791;28;20182;-89
2022/07/29 00:33:23;;;;;;;8.15;1.52;;;18.90;99.90;;;;;;4199877;28;20163;-89
2022/07/29 00:37:44;;;;;;;7.15;1.30;;;18.70;99.90;;;;;;4216365;28;20185;-90
2022/07/29 00:39:44;;;;;;;6.05;1.50;;;18.90;99.90;;;;;;4199606;28;20167;-90
2022/07/29 00:41:45;;;;;;;4.57;1.42;;;18.80;99.90;;;;;;4216027;28;20205;-90
2022/07/29 00:43:46;;;;;;;7.63;1.33;;;18.80;99.90;;;;;;4199417;28;20175;-89
2022/07/29 00:45:47;;;;;;;4.50;1.45;;;18.70;99.90;;;;;;4199247;28;20202;-89
2022/07/29 00:47:48;;;;;;;10.57;1.50;;;18.90;99.90;;;;;;4199437;28;20167;-91
2022/07/29 00:49:49;;;;;;;4.32;1.10;;;18.90;99.90;;;;;;4216211;28;20199;-90
2022/07/29 00:51:50;;;;;;;4.80;1.25;;;18.90;99.90;;;;;;4199206;28;20179;-90
2022/07/29 00:53:52;;;;;;;4.32;1.08;;;18.80;99.90;;;;;;4199259;28;20179;-90
2022/07/29 00:55:56;;;;;;;3.67;1.00;;;18.80;99.90;;;;;;4216229;28;20166;-90
2022/07/29 00:57:58;;;;;;;8.55;1.05;;;18.70;99.90;;;;;;4199148;28;20266;-90
2022/07/29 00:59:59;;;;;;;5.47;1.17;;;18.70;99.90;;;;;;4215945;28;20182;-90
2022/07/29 01:02:00;;;;;;;2.90;1.05;;;18.60;99.90;;;;;;4199069;28;20217;-89
2022/07/29 01:04:01;;;;;;;4.32;1.20;;;18.90;99.90;;;;;;4216059;28;20174;-91
2022/07/29 01:06:02;;;;;;;4.63;1.20;;;18.70;99.90;;;;;;4198905;28;20202;-89
2022/07/29 01:08:03;;;;;;;5.53;1.40;;;18.70;99.90;;;;;;4199766;28;20212;-89
2022/07/29 01:10:06;;;;;;;1.65;0.90;;;18.50;99.90;;;;;;4199019;28;20190;-90
2022/07/29 01:12:07;;;;;;;3.17;1.00;;;18.30;99.90;;;;;;4199165;28;20203;-90
2022/07/29 01:14:09;;;;;;;6.43;1.05;;;18.20;99.90;;;;;;4215915;28;20166;-90
2022/07/29 01:16:24;;;;;;;4.90;1.30;;;18.10;99.90;;;;;;4215620;28;20178;-88
2022/07/29 01:18:40;;;;;;;2.72;1.00;;;18.10;99.90;;;;;;4215537;28;20175;-90
2022/07/29 01:20:58;;;;;;;3.40;1.20;;;18.00;99.90;;;;;;4215274;28;20166;-89
2022/07/29 01:23:13;;;;;;;8.15;1.17;;;17.90;99.90;;;;;;4215411;28;20598;-89
2022/07/29 01:25:35;;;;;;;4.22;1.23;;;18.10;99.90;;;;;;4215558;28;20201;-89
2022/07/29 01:27:42;;;;;;;6.57;1.30;;;18.00;99.90;;;;;;4198454;28;20178;-89
2022/07/29 01:29:53;;;;;;;2.97;1.25;;;17.80;99.90;;;;;;4198782;28;20163;-90
2022/07/29 01:32:18;;;;;;;3.85;1.30;;;17.90;99.90;;;;;;4215673;28;20189;-89
2022/07/29 01:34:24;;;;;;;4.53;1.30;;;18.00;99.90;;;;;;4215477;28;20173;-89
2022/07/29 01:36:48;;;;;;;8.15;1.60;;;18.00;99.90;;;;;;4215400;28;20213;-91
2022/07/29 01:39:05;;;;;;;6.75;1.17;;;18.00;99.90;;;;;;4194906;28;20183;-90
2022/07/29 01:41:11;;;;;;;7.30;1.25;;;18.10;99.90;;;;;;4215206;28;20225;-90
2022/07/29 01:43:17;;;;;;;5.07;1.45;;;18.00;99.90;;;;;;4198549;28;20191;-89
2022/07/29 01:45:51;;;;;;;3.22;1.50;;;17.90;99.90;;;;;;4215202;28;20208;-91
2022/07/29 01:48:13;;;;;;;3.35;1.58;;;18.00;99.90;;;;;;4185034;28;20571;-89
2022/07/29 01:50:16;;;;;;;4.18;1.30;;;18.00;99.90;;;;;;4215203;28;20162;-89
2022/07/29 01:52:28;;;;;;;3.90;1.23;;;18.00;99.90;;;;;;4215001;28;20289;-90
2022/07/29 01:54:35;;;;;;;2.80;1.25;;;18.00;99.90;;;;;;4215053;28;20534;-90
2022/07/29 01:56:38;;;;;;;4.75;1.20;;;17.70;99.90;;;;;;4215025;28;20166;-91
2022/07/29 01:58:42;;;;;;;5.93;1.17;;;17.70;99.90;;;;;;4215156;28;20167;-90
2022/07/29 02:00:46;;;;;;;7.22;1.42;;;17.80;99.90;;;;;;4215003;28;20251;-89
2022/07/29 02:02:48;;;;;;;6.95;1.20;;;17.60;99.90;;;;;;4214833;28;20190;-89
2022/07/29 02:04:50;;;;;;;4.47;1.23;;;17.40;99.90;;;;;;4214853;28;20658;-91
2022/07/29 02:06:54;;;;;;;7.20;1.60;;;17.20;99.90;;;;;;4215074;28;20210;-89
2022/07/29 02:08:58;;;;;;;3.83;1.13;;;16.90;99.90;;;;;;4214983;28;20186;-90
2022/07/29 02:11:01;;;;;;;3.72;1.25;;;16.90;99.90;;;;;;4215146;28;20170;-89
2022/07/29 02:13:02;;;;;;;2.95;1.20;;;16.80;99.90;;;;;;4214967;28;20215;-90
2022/07/29 02:15:05;;;;;;;2.03;1.20;;;16.90;99.90;;;;;;4214780;28;20170;-89
2022/07/29 02:17:07;;;;;;;4.28;1.27;;;17.20;99.90;;;;;;4214901;28;20244;-88
2022/07/29 02:19:09;;;;;;;5.07;1.58;;;17.20;99.90;;;;;;4214895;28;20181;-90
2022/07/29 02:21:12;;;;;;;9.75;1.40;;;17.20;99.90;;;;;;4214602;28;20181;-89
2022/07/29 02:23:19;;;;;;;3.22;1.20;;;17.10;99.90;;;;;;4214680;28;20186;-88
2022/07/29 02:25:22;;;;;;;4.07;1.23;;;17.40;99.90;;;;;;4214628;28;20237;-90
2022/07/29 02:27:24;;;;;;;4.40;1.33;;;17.40;99.90;;;;;;4214656;28;20171;-90
2022/07/29 02:29:27;;;;;;;11.88;1.58;;;17.60;99.90;;;;;;4214725;28;20188;-90
2022/07/29 02:31:34;;;;;;;2.90;1.40;;;17.50;99.90;;;;;;4214788;28;20170;-89
2022/07/29 02:33:35;;;;;;;5.30;1.30;;;17.50;99.90;;;;;;4214713;28;20196;-89
2022/07/29 02:35:39;;;;;;;3.58;1.20;;;17.30;99.90;;;;;;4214545;28;20166;-90
2022/07/29 02:37:42;;;;;;;8.90;1.40;;;17.30;99.90;;;;;;4214618;28;20223;-90
2022/07/29 02:39:45;;;;;;;10.07;1.83;;;17.20;99.90;;;;;;4213694;28;20166;-90
2022/07/29 02:41:54;;;;;;;6.32;1.48;;;17.20;99.90;;;;;;4214555;28;20739;-89
2022/07/29 02:44:04;;;;;;;3.78;1.38;;;17.40;99.90;;;;;;4214507;28;20562;-90
2022/07/29 02:46:11;;;;;;;4.72;1.40;;;17.40;99.90;;;;;;4214466;28;20245;-91
2022/07/29 02:48:16;;;;;;;8.65;1.67;;;17.40;99.90;;;;;;4214444;28;20669;-90
2022/07/29 02:50:39;;;;;;;4.95;1.60;;;17.50;99.90;;;;;;4214152;28;20176;-89
2022/07/29 02:53:16;;;;;;;9.43;1.70;;;17.50;99.90;;;;;;4197378;28;20198;-90
2022/07/29 02:55:45;;;;;;;9.85;1.67;;;17.40;99.90;;;;;;4197727;28;20174;-90
2022/07/29 02:58:00;;;;;;;3.40;1.52;;;17.30;99.90;;;;;;4214245;28;20177;-90
2022/07/29 03:00:06;;;;;;;2.80;1.23;;;17.40;99.90;;;;;;4214356;28;20178;-90
2022/07/29 03:02:08;;;;;;;5.40;1.67;;;17.50;99.90;;;;;;4214301;28;20543;-90
2022/07/29 03:04:11;;;;;;;5.03;1.70;;;17.60;99.90;;;;;;4214220;28;20180;-89
2022/07/29 03:06:14;;;;;;;7.57;1.85;;;17.50;99.90;;;;;;4214274;28;20697;-90
2022/07/29 03:08:16;;;;;;;3.80;1.55;;;17.60;99.90;;;;;;4214115;28;20186;-88
2022/07/29 03:10:17;;;;;;;6.43;1.45;;;17.50;99.90;;;;;;4197515;28;20623;-89
2022/07/29 03:12:19;;;;;;;4.85;1.50;;;17.20;99.90;;;;;;4214363;28;20193;-90
2022/07/29 03:14:20;;;;;;;9.02;1.90;;;17.20;99.90;;;;;;4214285;28;20174;-90
2022/07/29 03:16:23;;;;;;;9.25;1.48;;;17.20;99.90;;;;;;4197426;28;20173;-89
2022/07/29 03:18:25;;;;;;;6.97;2.05;;;17.20;99.90;;;;;;4197755;28;20654;-90
2022/07/29 03:20:26;;;;;;;12.18;1.90;;;17.20;99.90;;;;;;4214402;28;20224;-90
2022/07/29 03:22:27;;;;;;;5.95;1.60;;;17.10;99.90;;;;;;4197536;28;20182;-89
2022/07/29 03:24:33;;;;;;;6.18;1.75;;;17.10;99.90;;;;;;4197404;28;20175;-91
2022/07/29 03:26:34;;;;;;;5.35;1.70;;;16.80;99.90;;;;;;4197227;28;20574;-89
2022/07/29 03:28:35;;;;;;;7.93;1.88;;;16.70;99.90;;;;;;4197276;28;20187;-89
2022/07/29 03:30:36;;;;;;;3.53;1.60;;;16.60;99.90;;;;;;4197209;28;20179;-91
2022/07/29 03:32:37;;;;;;;3.22;1.40;;;16.70;99.90;;;;;;4197094;28;20247;-90
2022/07/29 03:34:38;;;;;;;5.53;1.63;;;16.70;99.90;;;;;;4197316;28;20225;-89
2022/07/29 03:36:38;;;;;;;4.50;1.60;;;16.60;99.90;;;;;;4197197;28;20182;-91
2022/07/29 03:38:42;;;;;;;4.30;1.45;;;16.60;99.90;;;;;;4213695;28;20227;-89
2022/07/29 03:40:46;;;;;;;5.07;1.63;;;16.60;99.90;;;;;;4197075;28;20179;-90
2022/07/29 03:42:49;;;;;;;2.90;1.40;;;16.60;99.90;;;;;;4197370;28;20197;-90
2022/07/29 03:44:52;;;;;;;6.28;1.50;;;16.70;99.90;;;;;;4213961;28;20162;-89
2022/07/29 03:46:55;;;;;;;3.67;1.45;;;16.70;99.90;;;;;;4214185;28;20273;-89
2022/07/29 03:49:00;;;;;;;7.78;1.95;;;16.60;99.90;;;;;;4197001;28;20174;-91
2022/07/29 03:51:00;;;;;;;5.32;1.67;;;16.50;99.90;;;;;;4215078;28;20253;-89
2022/07/29 03:53:02;;;;;;;4.60;1.60;;;16.60;99.90;;;;;;4217140;28;20201;-90
2022/07/29 03:55:04;;;;;;;6.30;1.90;;;16.60;99.90;;;;;;4217035;28;20177;-92
2022/07/29 03:57:07;;;;;;;5.38;1.70;;;16.50;99.90;;;;;;4216983;28;20177;-89
2022/07/29 03:59:08;;;;;;;6.53;2.03;;;16.40;99.90;;;;;;4200181;28;20633;-90
2022/07/29 04:01:10;;;;;;;7.53;2.17;;;16.30;99.90;;;;;;4216855;28;20178;-92
2022/07/29 04:03:11;;;;;;;7.43;2.40;;;16.50;99.90;;;;;;4216878;28;20185;-89
2022/07/29 04:05:13;;;;;;;8.60;2.28;;;16.50;99.90;;;;;;4200033;28;20209;-89
2022/07/29 04:07:15;;;;;;;4.95;1.92;;;16.50;99.90;;;;;;4200097;28;20596;-91
2022/07/29 04:09:15;;;;;;;11.77;2.50;;;16.30;99.90;;;;;;4216869;28;20201;-90
2022/07/29 04:11:16;;;;;;;12.50;2.45;;;16.30;99.90;;;;;;4199846;28;20178;-91
2022/07/29 04:13:17;;;;;;;5.65;2.22;;;16.20;99.90;;;;;;4200045;28;20257;-89
2022/07/29 04:15:18;;;;;;;5.43;2.20;;;16.30;99.90;;;;;;4200082;28;20175;-89
2022/07/29 04:17:19;;;;;;;7.70;2.80;;;16.30;99.90;;;;;;4200094;28;20167;-90
2022/07/29 04:19:19;;;;;;;6.75;2.55;;;16.30;99.90;;;;;;4199758;28;20631;-89
2022/07/29 04:21:20;;;;;;;5.65;2.50;;;16.30;99.90;;;;;;4199660;28;20182;-90
2022/07/29 04:23:21;;;;;;;4.63;2.22;;;16.20;99.90;;;;;;4216747;28;20182;-89
2022/07/29 04:25:22;;;;;;;5.95;2.35;;;16.40;99.90;;;;;;4199664;28;20213;-89
2022/07/29 04:27:23;;;;;;;5.47;2.30;;;16.30;99.90;;;;;;4199746;28;20258;-90
2022/07/29 04:29:23;;;;;;;4.60;2.30;;;16.20;99.90;;;;;;4199707;28;20221;-89
2022/07/29 04:31:24;;;;;;;4.30;1.98;;;16.30;99.90;;;;;;4199676;28;20167;-91
2022/07/29 04:33:25;;;;;;;5.97;2.60;;;16.20;99.90;;;;;;4199758;28;20179;-92
2022/07/29 04:35:27;;;;;;;9.55;3.10;;;16.30;99.90;;;;;;4216314;28;20174;-89
2022/07/29 04:37:28;;;;;;;8.10;2.42;;;16.30;99.90;;;;;;4216508;28;20260;-90
2022/07/29 04:39:28;;;;;;;7.68;2.15;;;16.30;99.90;;;;;;4199515;28;20167;-90
2022/07/29 04:41:29;;;;;;;9.77;2.35;;;16.30;99.90;;;;;;4199525;28;20277;-91
2022/07/29 04:43:30;;;;;;;6.75;2.30;;;16.40;99.90;;;;;;4216075;28;20642;-90
2022/07/29 04:45:30;;;;;;;5.95;2.40;;;16.40;99.90;;;;;;4199147;28;20276;-90
2022/07/29 04:47:31;;;;;;;5.32;2.05;;;16.40;99.90;;;;;;4216194;28;20223;-90
2022/07/29 04:49:32;;;;;;;5.93;2.13;;;16.50;99.90;;;;;;4215846;28;20261;-90
2022/07/29 04:51:33;;;;;;;5.78;2.30;;;16.50;99.90;;;;;;4199186;28;20178;-89
2022/07/29 04:53:33;;;;;;;9.65;2.75;;;16.60;99.90;;;;;;4199280;28;20167;-89
2022/07/29 04:55:34;;;;;;;5.72;2.42;;;16.60;99.90;;;;;;4199325;28;20714;-89
2022/07/29 04:57:35;;;;;;;6.90;2.45;;;16.60;99.90;;;;;;4199308;28;20171;-89
2022/07/29 04:59:36;;;;;;;10.32;2.60;;;16.80;99.90;;;;;;4216098;28;20228;-92
2022/07/29 05:01:36;;;;;;;5.93;2.28;;;16.80;99.90;;;;;;4199152;28;20218;-89
2022/07/29 05:03:37;;;;;;;5.10;2.55;;;16.90;99.90;;;;;;4215288;28;20185;-90
2022/07/29 05:05:38;;;;;;;5.25;2.47;;;17.00;99.90;;;;;;4199036;28;20250;-89
2022/07/29 05:07:38;;;;;;;5.38;2.28;;;17.10;99.90;;;;;;4199243;28;20177;-89
2022/07/29 05:09:39;;;;;;;9.32;2.50;;;17.20;99.90;;;;;;4215741;28;20190;-91
2022/07/29 05:11:40;;;;;;;5.80;2.42;;;17.30;99.90;;;;;;4199022;28;20270;-91
2022/07/29 05:13:41;;;;;;;8.85;2.55;;;17.30;99.90;;;;;;4199121;28;20256;-90
2022/07/29 05:15:41;;;;;;;5.97;2.15;;;17.40;99.90;;;;;;4215780;28;20170;-90
2022/07/29 05:17:42;;;;;;;8.38;2.70;;;17.40;99.90;;;;;;4215707;28;20185;-90
2022/07/29 05:19:43;;;;;;;4.78;2.17;;;17.50;99.90;;;;;;4198745;28;20159;-90
2022/07/29 05:21:46;;;;;;;6.55;2.30;;;17.60;99.90;;;;;;4199002;28;20230;-90
2022/07/29 05:23:47;;;;;;;5.40;2.00;;;17.70;99.90;;;;;;4199186;28;20178;-90
2022/07/29 05:25:47;;;;;;;7.60;2.30;;;17.70;99.90;;;;;;4215783;28;20562;-90
2022/07/29 05:27:48;;;;;;;11.70;2.78;;;17.80;99.90;;;;;;4215588;28;20174;-89
2022/07/29 05:29:49;;;;;;;6.70;2.35;;;17.80;99.90;;;;;;4199027;28;20277;-91
2022/07/29 05:31:51;;;;;;;6.35;2.05;;;17.70;99.90;;;;;;4198582;28;20195;-90
2022/07/29 05:33:52;;;;;;;4.05;2.30;;;17.80;99.90;;;;;;4215519;28;20182;-89
2022/07/29 05:35:53;;;;;;;3.95;1.95;;;17.90;99.90;;;;;;4198589;28;20167;-90
2022/07/29 05:37:53;;;;;;;4.88;2.50;;;17.90;99.90;;;;;;4198740;28;20635;-90
2022/07/29 05:39:54;;;;;;;6.25;2.83;;;17.90;99.90;;;;;;4215334;28;20169;-90
2022/07/29 05:41:55;;;;;;;11.15;2.95;;;17.90;99.90;;;;;;4198812;28;20210;-91
2022/07/29 05:43:56;;;;;;;9.75;2.85;;;18.00;99.90;;;;;;4198532;28;20730;-89
2022/07/29 05:45:56;;;;;;;7.07;2.63;;;18.30;99.90;;;;;;4215148;28;20616;-89
2022/07/29 05:47:57;;;;;;;12.40;3.03;;;18.60;99.90;;;;;;4198633;28;20171;-89
2022/07/29 05:49:58;;;;;;;10.80;2.78;;;18.40;99.90;;;;;;4198410;28;20674;-90
2022/07/29 05:51:59;;;;;;;8.38;2.65;;;18.50;99.90;;;;;;4198464;28;20191;-90
2022/07/29 05:53:59;;;;;;;7.40;2.72;;;18.50;99.90;;;;;;4215352;28;20177;-89
2022/07/29 05:56:04;;;;;;;6.43;2.90;;;18.40;99.90;;;;;;4215358;28;20167;-89
2022/07/29 05:58:05;;;;;;;7.55;3.20;;;18.70;99.90;;;;;;4215044;28;20174;-90
2022/07/29 06:00:06;;;;;;;11.60;3.40;;;18.30;99.90;;;;;;4198103;28;20170;-90
2022/07/29 06:02:13;;;;;;;7.30;3.22;;;18.20;99.90;;;;;;4214841;28;20194;-90
2022/07/29 06:04:13;;;;;;;9.10;3.30;;;18.10;99.90;;;;;;4198258;28;20672;-91
2022/07/29 06:06:14;;;;;;;10.68;3.10;;;18.00;99.90;;;;;;4198128;28;20293;-89
2022/07/29 06:08:15;;;;;;;5.80;2.63;;;18.30;99.90;;;;;;4198254;28;20167;-90
2022/07/29 06:10:16;;;;;;;7.15;2.95;;;18.70;99.90;;;;;;4198068;28;20257;-91
2022/07/29 06:12:16;;;;;;;7.03;2.90;;;18.90;99.90;;;;;;4214812;28;20666;-89
2022/07/29 06:14:17;;;;;;;12.48;3.33;;;19.00;99.90;;;;;;4214786;28;20182;-89
2022/07/29 06:16:18;;;;;;;6.30;2.92;;;19.00;99.90;;;;;;4197992;28;20166;-91
2022/07/29 06:18:20;;;;;;;4.93;2.65;;;18.90;99.90;;;;;;4198270;28;20198;-89
2022/07/29 06:20:21;;;;;;;6.40;2.80;;;18.90;99.90;;;;;;4198082;28;20178;-89
2022/07/29 06:22:22;;;;;;;7.18;2.78;;;18.80;99.90;;;;;;4198151;28;20191;-89
2022/07/29 06:24:23;;;;;;;6.57;2.42;;;18.70;99.90;;;;;;4197816;28;20171;-89
2022/07/29 06:26:23;;;;;;;7.30;2.80;;;18.70;99.90;;;;;;4198097;28;20218;-91
2022/07/29 06:28:24;;;;;;;6.10;2.33;;;18.70;99.90;;;;;;4214709;28;20181;-90
2022/07/29 06:30:25;;;;;;;5.45;2.40;;;18.60;99.90;;;;;;4214448;28;20178;-90
2022/07/29 06:32:26;;;;;;;6.10;2.55;;;18.70;99.90;;;;;;4197473;28;20221;-91
2022/07/29 06:34:26;;;;;;;7.95;2.88;;;18.70;99.90;;;;;;4214506;28;20701;-91
2022/07/29 06:36:27;;;;;;;6.82;2.47;;;18.80;99.90;;;;;;4198158;28;20183;-89
2022/07/29 06:38:28;;;;;;;5.10;2.20;;;19.00;99.90;;;;;;4214519;28;20170;-92
2022/07/29 06:42:48;;;;;;;6.00;2.50;;;19.10;99.90;;;;;;4214561;28;20216;-92
2022/07/29 06:44:49;;;;;;;7.68;2.55;;;19.40;99.90;;;;;;4197844;28;20167;-91
2022/07/29 06:46:51;;;;;;;5.13;2.15;;;19.70;99.90;;;;;;4214365;28;20166;-89
2022/07/29 06:48:52;;;;;;;6.38;2.40;;;19.90;99.90;;;;;;4197924;28;20174;-89
2022/07/29 06:50:52;;;;;;;6.22;2.80;;;20.00;99.90;;;;;;4214272;28;20208;-90
2022/07/29 06:52:53;;;;;;;7.60;2.50;;;19.90;99.90;;;;;;4197705;28;20198;-91
2022/07/29 06:54:54;;;;;;;10.57;2.47;;;20.30;99.90;;;;;;4214442;28;20189;-90
2022/07/29 06:56:55;;;;;;;7.97;2.50;;;20.50;99.90;;;;;;4197559;28;20173;-91
2022/07/29 06:58:56;;;;;;;9.07;3.25;;;20.50;99.90;;;;;;4214335;28;20166;-90
2022/07/29 07:00:58;;;;;;;4.97;2.15;;;20.50;99.90;;;;;;4214183;28;20208;-90
2022/07/29 07:02:59;;;;;;;11.02;2.88;;;20.60;99.90;;;;;;4197669;28;20282;-92
2022/07/29 07:05:00;;;;;;;6.57;2.40;;;20.80;99.90;;;;;;4197238;28;20190;-91
2022/07/29 07:07:00;;;;;;;6.10;2.83;;;20.90;99.90;;;;;;4197600;28;20201;-90
2022/07/29 07:09:01;;;;;;;8.65;2.70;;;21.00;99.90;;;;;;4197893;28;20642;-89
2022/07/29 07:11:03;;;;;;;11.32;2.88;;;20.90;99.90;;;;;;4214083;28;20174;-89
2022/07/29 07:13:05;;;;;;;10.63;2.65;;;20.80;99.90;;;;;;4197638;28;20190;-91
2022/07/29 07:15:06;;;;;;;5.93;2.60;;;20.60;99.90;;;;;;4197687;28;20174;-90
2022/07/29 07:17:07;;;;;;;6.30;2.38;;;20.70;99.90;;;;;;4197601;28;20205;-89
2022/07/29 07:19:08;;;;;;;7.55;2.40;;;20.90;99.90;;;;;;4197536;28;20205;-89
2022/07/29 07:21:09;;;;;;;5.15;2.60;;;21.00;99.90;;;;;;4214052;28;20166;-90
2022/07/29 07:23:09;;;;;;;10.95;2.80;;;21.20;99.90;;;;;;4214163;28;20221;-91
2022/07/29 07:25:11;;;;;;;5.55;2.78;;;21.40;99.90;;;;;;4197305;28;20679;-91
2022/07/29 07:27:11;;;;;;;5.90;2.60;;;21.20;99.90;;;;;;4200908;28;20213;-91
2022/07/29 07:29:12;;;;;;;5.88;2.50;;;21.30;99.90;;;;;;4200521;28;20171;-91
2022/07/29 07:31:14;;;;;;;10.13;2.80;;;21.60;99.90;;;;;;4217428;28;20182;-90
2022/07/29 07:33:14;;;;;;;6.55;2.35;;;21.70;99.90;;;;;;4200673;28;20186;-92
2022/07/29 07:35:15;;;;;;;7.20;2.50;;;21.70;99.90;;;;;;4217352;28;20565;-92
2022/07/29 07:37:17;;;;;;;5.95;2.60;;;21.90;99.90;;;;;;4200652;28;20206;-90
2022/07/29 07:39:17;;;;;;;9.63;2.50;;;22.20;99.90;;;;;;4217383;28;20512;-90
2022/07/29 07:41:18;;;;;;;4.70;2.55;;;22.30;99.90;;;;;;4200414;28;20264;-91
2022/07/29 07:43:19;;;;;;;7.07;2.88;;;22.60;99.90;;;;;;4200460;28;20191;-91
2022/07/29 07:45:19;;;;;;;5.90;2.40;;;22.60;99.90;;;;;;4200248;28;20221;-90
2022/07/29 07:47:20;;;;;;;6.85;2.47;;;23.70;99.90;;;;;;4200447;28;20647;-90
2022/07/29 07:49:21;;;;;;;8.75;2.60;;;23.80;99.90;;;;;;4216940;28;20185;-90
2022/07/29 07:51:22;;;;;;;4.22;2.47;;;23.30;99.90;;;;;;4217236;28;20178;-92
2022/07/29 07:53:22;;;;;;;8.35;2.80;;;23.60;99.90;;;;;;4200398;28;20175;-91
2022/07/29 07:55:24;;;;;;;6.20;2.25;;;23.10;99.90;;;;;;4200234;28;20672;-90
2022/07/29 07:57:25;;;;;;;6.72;2.55;;;23.30;99.90;;;;;;4200433;28;20255;-91
2022/07/29 07:59:25;;;;;;;5.57;2.33;;;23.20;99.90;;;;;;4216945;28;20631;-91
2022/07/29 08:01:26;;;;;;;5.55;2.30;;;23.70;99.90;;;;;;4200233;28;20643;-90
2022/07/29 08:03:27;;;;;;;7.13;2.30;;;25.20;99.90;;;;;;4200170;28;20190;-91
2022/07/29 08:05:28;;;;;;;4.28;2.20;;;26.90;99.90;;;;;;4216728;28;20232;-92
2022/07/29 08:07:29;;;;;;;11.50;2.25;;;27.00;99.90;;;;;;4200138;28;20175;-91
2022/07/29 08:09:29;;;;;;;4.97;1.90;;;27.50;99.90;;;;;;4200226;28;20269;-92
2022/07/29 08:11:31;;;;;;;7.68;2.33;;;28.60;99.90;;;;;;4199983;28;20265;-91
2022/07/29 08:13:32;;;;;;;9.00;2.22;;;29.70;99.90;;;;;;4216775;28;20170;-89
2022/07/29 08:15:32;;;;;;;5.63;2.22;;;30.00;99.90;;;;;;4217080;28;20162;-91
2022/07/29 08:17:33;;;;;;;6.40;2.28;;;29.80;99.90;;;;;;4200185;28;20171;-90
2022/07/29 08:19:34;;;;;;;6.50;2.90;;;29.90;99.90;;;;;;4216850;28;20166;-91
2022/07/29 08:21:35;;;;;;;12.30;2.33;;;30.60;99.90;;;;;;4216511;28;20642;-90
2022/07/29 08:23:39;;;;;;;7.80;2.40;;;30.20;99.90;;;;;;4200048;28;20167;-90
2022/07/29 08:25:39;;;;;;;7.95;2.67;;;30.30;99.90;;;;;;4199794;28;20206;-91
2022/07/29 08:27:40;;;;;;;4.40;2.40;;;29.50;99.90;;;;;;4199846;28;20229;-91
2022/07/29 08:29:41;;;;;;;4.13;2.33;;;28.50;99.90;;;;;;4199586;28;20171;-90
2022/07/29 08:31:42;;;;;;;7.88;2.20;;;27.60;99.90;;;;;;4216341;28;20194;-90
2022/07/29 08:33:43;;;;;;;9.63;3.22;;;28.30;99.90;;;;;;4216335;28;20189;-90
2022/07/29 08:35:43;;;;;;;6.70;2.28;;;29.50;99.90;;;;;;4199745;28;20690;-90
2022/07/29 08:37:44;;;;;;;5.25;2.55;;;30.50;99.90;;;;;;4198346;28;20590;-90
2022/07/29 08:39:45;;;;;;;8.60;2.63;;;30.20;99.90;;;;;;4199888;28;20178;-91
2022/07/29 08:41:47;;;;;;;4.53;2.33;;;28.90;99.90;;;;;;4199458;28;20253;-92
2022/07/29 08:43:49;;;;;;;5.63;2.30;;;29.50;99.90;;;;;;4216395;28;20276;-90
2022/07/29 08:45:50;;;;;;;6.38;2.50;;;29.80;99.90;;;;;;4199466;28;20214;-90
2022/07/29 08:47:52;;;;;;;6.43;2.20;;;29.90;99.90;;;;;;4216295;28;20253;-90
2022/07/29 08:49:53;;;;;;;2.88;2.30;;;30.20;99.90;;;;;;4216333;28;20208;-90
2022/07/29 08:51:54;;;;;;;3.58;2.17;;;30.50;99.90;;;;;;4216134;28;20193;-90
2022/07/29 08:53:55;;;;;;;7.05;2.80;;;30.70;99.90;;;;;;4199452;28;20166;-90
2022/07/29 08:55:58;;;;;;;6.85;2.63;;;30.60;99.90;;;;;;4199454;28;20198;-90
2022/07/29 08:57:59;;;;;;;5.70;2.08;;;30.40;99.90;;;;;;4199614;28;20835;-90
2022/07/29 09:00:03;;;;;;;10.27;2.33;;;29.80;99.90;;;;;;4216198;28;20197;-89
2022/07/29 09:02:04;;;;;;;6.40;2.40;;;30.20;99.90;;;;;;4216000;28;20190;-90
2022/07/29 09:04:11;;;;;;;5.45;2.28;;;30.70;99.90;;;;;;4199277;28;20171;-90
2022/07/29 09:06:17;;;;;;;8.20;2.30;;;31.40;99.90;;;;;;4199002;28;20257;-90
2022/07/29 09:08:19;;;;;;;10.18;2.22;;;32.10;99.90;;;;;;4215612;28;20265;-91
2022/07/29 09:10:20;;;;;;;4.75;2.03;;;31.60;99.90;;;;;;4216118;28;20184;-90
2022/07/29 09:12:22;;;;;;;7.47;2.45;;;31.80;99.90;;;;;;4199093;28;20192;-92
2022/07/29 09:14:22;;;;;;;6.68;2.30;;;30.90;99.90;;;;;;4215895;28;20617;-90
2022/07/29 09:16:23;;;;;;;4.32;2.30;;;30.60;99.90;;;;;;4215827;28;20213;-90
2022/07/29 09:18:40;;;;;;;6.95;2.28;;;30.10;99.90;;;;;;4215714;28;20171;-91
2022/07/29 09:23:13;;;;;;;9.00;2.58;;;30.20;99.90;;;;;;4215723;28;20621;-89
2022/07/29 09:25:13;;;;;;;7.10;2.50;;;29.80;99.90;;;;;;4215833;28;20166;-89
2022/07/29 09:27:17;;;;;;;5.10;1.90;;;30.90;99.90;;;;;;4198812;28;20177;-89
2022/07/29 09:29:23;;;;;;;5.32;2.22;;;31.00;99.90;;;;;;4198839;28;20179;-90
2022/07/29 09:31:49;;;;;;;5.65;2.35;;;29.70;99.90;;;;;;4198949;28;20166;-91
2022/07/29 09:33:52;;;;;;;9.20;1.80;;;28.40;99.90;;;;;;4215471;28;20163;-90
2022/07/29 09:36:18;;;;;;;7.72;2.33;;;28.50;99.90;;;;;;4215384;28;20213;-91
2022/07/29 09:38:19;;;;;;;9.25;2.15;;;29.80;99.90;;;;;;4195029;28;20178;-90
2022/07/29 09:40:22;;;;;;;10.15;2.22;;;29.50;99.90;;;;;;4215562;28;20206;-90
2022/07/29 09:42:29;;;;;;;9.13;2.50;;;29.50;99.90;;;;;;4198556;28;20701;-91
2022/07/29 09:44:48;;;;;;;6.97;2.03;;;30.00;99.90;;;;;;4215293;28;20181;-90
2022/07/29 09:47:08;;;;;;;3.67;2.03;;;30.30;99.90;;;;;;4215229;28;20638;-90
2022/07/29 09:49:10;;;;;;;11.02;2.10;;;30.90;99.90;;;;;;4214763;28;20201;-89
2022/07/29 09:51:20;;;;;;;8.98;2.63;;;31.50;99.90;;;;;;4215022;28;20189;-90
2022/07/29 09:53:36;;;;;;;8.95;2.60;;;31.50;99.90;;;;;;4215244;28;20261;-90
2022/07/29 09:55:51;;;;;;;5.35;2.38;;;31.60;99.90;;;;;;4215151;28;20284;-90
2022/07/29 09:57:53;;;;;;;9.10;2.08;;;30.00;99.90;;;;;;4215120;28;20236;-90
2022/07/29 10:00:06;;;;;;;6.93;2.25;;;29.60;99.90;;;;;;4215019;28;20174;-88
2022/07/29 10:02:13;;;;;;;7.68;2.50;;;29.00;99.90;;;;;;4215098;28;20213;-90
2022/07/29 10:04:14;;;;;;;7.43;2.58;;;28.60;99.90;;;;;;4198254;28;20159;-89
2022/07/29 10:06:15;;;;;;;9.50;2.90;;;28.30;99.90;;;;;;4198340;28;20167;-89
2022/07/29 10:08:25;;;;;;;8.68;3.30;;;27.80;99.90;;;;;;4198277;28;20201;-90
2022/07/29 10:10:31;;;;;;;9.00;3.45;;;27.40;99.90;;;;;;4198128;28;20185;-89
2022/07/29 10:12:32;;;;;;;7.47;3.17;;;27.60;99.90;;;;;;4214909;28;20186;-89
2022/07/29 10:14:33;;;;;;;7.25;3.13;;;28.00;99.90;;;;;;4198157;28;20258;-90
2022/07/29 10:16:35;;;;;;;6.72;2.92;;;28.20;99.90;;;;;;4214752;28;20228;-89
2022/07/29 10:18:39;;;;;;;6.90;2.65;;;28.40;99.90;;;;;;4198278;28;20732;-91
2022/07/29 10:20:40;;;;;;;7.68;2.70;;;28.40;99.90;;;;;;4214634;28;20568;-90
2022/07/29 10:22:41;;;;;;;5.75;3.20;;;28.60;99.90;;;;;;4214864;28;20432;-91
2022/07/29 10:24:41;;;;;;;5.38;2.92;;;28.90;99.90;;;;;;4214548;28;20211;-90
2022/07/29 10:26:44;;;;;;;6.88;2.83;;;29.60;99.90;;;;;;4197891;28;20217;-91
2022/07/29 10:28:46;;;;;;;17.20;2.90;;;28.80;99.90;;;;;;4215056;28;20190;-89
2022/07/29 10:30:50;;;;;;;10.32;3.00;;;28.70;99.90;;;;;;4198092;28;20217;-90
2022/07/29 10:33:11;;;;;;;6.10;2.47;;;27.70;99.90;;;;;;4214779;28;20240;-90
2022/07/29 10:35:45;;;;;;;5.30;2.50;;;27.60;99.90;;;;;;4214747;28;20226;-91
2022/07/29 10:38:24;;;;;;;5.63;2.30;;;27.60;99.90;;;;;;4197884;28;20209;-89
2022/07/29 10:43:02;;;;;;;5.90;2.17;;;27.10;99.90;;;;;;4214489;28;20197;-90
2022/07/29 10:45:04;;;;;;;5.25;2.33;;;26.60;99.90;;;;;;4197839;28;20249;-90
2022/07/29 10:47:04;;;;;;;11.27;2.20;;;26.50;99.90;;;;;;4197706;28;20178;-89
2022/07/29 10:49:09;;;;;;;5.70;2.38;;;26.50;99.90;;;;;;4214519;28;20178;-91
2022/07/29 10:51:10;;;;;;;11.45;2.13;;;26.50;99.90;;;;;;4197549;28;20305;-90